createdAt,value
2023-03-19T00:02:12.213Z,100345.94
2023-03-19T00:04:43.493Z,100354.56
2023-03-19T00:07:10.072Z,100347.66
2023-03-19T00:09:36.671Z,100346.78
2023-03-19T00:12:03.462Z,100348.50
2023-03-19T00:14:29.987Z,100349.38
2023-03-19T00:16:56.841Z,100350.19
2023-03-19T00:19:23.423Z,100351.91
2023-03-19T00:21:49.915Z,100345.03
2023-03-19T00:24:17.758Z,100342.50
2023-03-19T00:26:44.459Z,100341.66
2023-03-19T00:29:13.084Z,100349.47
2023-03-19T00:31:41.538Z,100347.78
2023-03-19T00:34:09.853Z,100347.13
2023-03-19T00:36:37.431Z,100344.56
2023-03-19T00:39:05.000Z,100340.31
2023-03-19T00:41:32.315Z,100346.50
2023-03-19T00:44:00.246Z,100350.94
2023-03-19T00:46:27.522Z,100351.06
2023-03-19T00:48:55.650Z,100356.34
2023-03-19T00:51:23.775Z,100350.31
2023-03-19T00:53:51.013Z,100349.47
2023-03-19T00:56:18.676Z,100347.75
2023-03-19T00:58:45.728Z,100339.03
2023-03-19T01:01:14.476Z,100342.50
2023-03-19T01:03:41.617Z,100343.41
2023-03-19T01:06:08.270Z,100345.16
2023-03-19T01:08:35.421Z,100351.31
2023-03-19T01:11:12.132Z,100357.78
2023-03-19T01:13:39.031Z,100350.84
2023-03-19T01:16:06.669Z,100350.03
2023-03-19T01:18:33.505Z,100353.66
2023-03-19T01:21:00.151Z,100352.88
2023-03-19T01:23:27.328Z,100351.13
2023-03-19T01:25:53.867Z,100351.03
2023-03-19T01:28:20.502Z,100352.16
2023-03-19T01:30:46.986Z,100349.59
2023-03-19T01:33:14.044Z,100344.28
2023-03-19T01:35:40.543Z,100340.75
2023-03-19T01:38:07.978Z,100339.91
2023-03-19T01:40:34.712Z,100325.88
2023-03-19T01:43:23.181Z,100324.94
2023-03-19T01:46:00.042Z,100325.78
2023-03-19T01:48:59.776Z,100320.00
2023-03-19T01:51:29.969Z,100326.34
2023-03-19T01:54:00.650Z,100335.28
2023-03-19T01:56:34.997Z,100325.88
2023-03-19T01:59:08.308Z,100333.78
2023-03-19T02:01:39.866Z,100326.75
2023-03-19T02:04:07.318Z,100326.66
2023-03-19T02:06:35.114Z,100332.94
2023-03-19T02:09:02.745Z,100325.97
2023-03-19T02:11:29.483Z,100325.34
2023-03-19T02:13:55.956Z,100332.38
2023-03-19T02:16:22.618Z,100326.25
2023-03-19T02:18:49.527Z,100327.84
2023-03-19T02:21:17.736Z,100330.44
2023-03-19T02:24:08.947Z,100329.50
2023-03-19T02:26:36.431Z,100324.28
2023-03-19T02:29:04.138Z,100328.63
2023-03-19T02:31:30.957Z,100327.78
2023-03-19T02:34:06.578Z,100330.34
2023-03-19T02:36:37.647Z,100328.59
2023-03-19T02:39:08.664Z,100334.66
2023-03-19T02:41:39.478Z,100325.13
2023-03-19T02:44:07.860Z,100332.03
2023-03-19T02:46:34.467Z,100330.34
2023-03-19T02:49:01.012Z,100321.59
2023-03-19T02:51:27.525Z,100319.91
2023-03-19T02:53:54.005Z,100324.16
2023-03-19T02:56:20.607Z,100329.41
2023-03-19T02:58:47.145Z,100323.31
2023-03-19T03:01:13.864Z,100326.81
2023-03-19T03:03:40.392Z,100327.84
2023-03-19T03:06:07.144Z,100327.78
2023-03-19T03:08:33.609Z,100327.78
2023-03-19T03:11:00.130Z,100322.47
2023-03-19T03:13:27.826Z,100325.06
2023-03-19T03:15:54.569Z,100330.09
2023-03-19T03:18:21.123Z,100321.41
2023-03-19T03:20:48.053Z,100334.38
2023-03-19T03:23:14.516Z,100328.22
2023-03-19T03:25:41.290Z,100330.75
2023-03-19T03:28:07.755Z,100332.38
2023-03-19T03:30:34.366Z,100336.56
2023-03-19T03:33:01.497Z,100340.78
2023-03-19T03:35:28.008Z,100338.00
2023-03-19T03:37:55.152Z,100343.16
2023-03-19T03:40:21.792Z,100346.63
2023-03-19T03:42:48.303Z,100351.78
2023-03-19T03:45:15.327Z,100344.78
2023-03-19T03:47:42.160Z,100356.06
2023-03-19T03:50:10.910Z,100354.19
2023-03-19T03:52:38.349Z,100353.16
2023-03-19T03:55:05.435Z,100365.28
2023-03-19T03:57:31.875Z,100359.97
2023-03-19T03:59:58.507Z,100359.94
2023-03-19T04:02:25.288Z,100361.66
2023-03-19T04:04:51.810Z,100364.22
2023-03-19T04:07:18.456Z,100362.44
2023-03-19T04:09:46.014Z,100366.78
2023-03-19T04:12:15.970Z,100368.50
2023-03-19T04:14:43.064Z,100372.81
2023-03-19T04:17:09.721Z,100365.84
2023-03-19T04:19:36.269Z,100368.38
2023-03-19T04:22:03.523Z,100365.72
2023-03-19T04:24:30.206Z,100371.81
2023-03-19T04:26:56.735Z,100373.53
2023-03-19T04:29:23.644Z,100375.28
2023-03-19T04:31:50.981Z,100375.28
2023-03-19T04:34:17.592Z,100379.63
2023-03-19T04:36:44.185Z,100380.50
2023-03-19T04:39:10.606Z,100377.00
2023-03-19T04:41:37.551Z,100379.66
2023-03-19T04:44:04.041Z,100377.88
2023-03-19T04:46:30.709Z,100382.22
2023-03-19T04:48:57.251Z,100378.75
2023-03-19T04:51:24.028Z,100376.13
2023-03-19T04:53:50.509Z,100383.97
2023-03-19T04:56:17.977Z,100388.34
2023-03-19T04:58:45.403Z,100393.56
2023-03-19T05:01:11.938Z,100383.97
2023-03-19T05:03:38.471Z,100388.34
2023-03-19T05:06:05.319Z,100393.53
2023-03-19T05:08:31.814Z,100397.06
2023-03-19T05:10:58.270Z,100394.44
2023-03-19T05:13:24.781Z,100390.94
2023-03-19T05:15:53.685Z,100392.69
2023-03-19T05:18:20.397Z,100395.25
2023-03-19T05:20:47.177Z,100403.06
2023-03-19T05:23:14.009Z,100405.69
2023-03-19T05:25:40.816Z,100403.94
2023-03-19T05:28:08.250Z,100408.25
2023-03-19T05:30:36.042Z,100403.88
2023-03-19T05:33:02.914Z,100414.34
2023-03-19T05:35:30.523Z,100416.91
2023-03-19T05:37:57.898Z,100408.22
2023-03-19T05:40:24.886Z,100411.69
2023-03-19T05:42:51.498Z,100405.59
2023-03-19T05:45:18.347Z,100411.69
2023-03-19T05:47:47.934Z,100421.28
2023-03-19T05:50:14.501Z,100413.44
2023-03-19T05:52:41.085Z,100419.53
2023-03-19T05:55:08.323Z,100420.41
2023-03-19T05:57:34.848Z,100422.09
2023-03-19T06:00:01.674Z,100429.97
2023-03-19T06:02:28.286Z,100427.31
2023-03-19T06:04:54.745Z,100422.03
2023-03-19T06:07:21.665Z,100429.81
2023-03-19T06:09:48.065Z,100437.66
2023-03-19T06:12:14.530Z,100436.78
2023-03-19T06:14:41.065Z,100447.25
2023-03-19T06:17:07.590Z,100442.84
2023-03-19T06:19:34.103Z,100449.78
2023-03-19T06:22:01.020Z,100451.50
2023-03-19T06:24:30.426Z,100445.38
2023-03-19T06:26:57.025Z,100447.94
2023-03-19T06:29:23.545Z,100459.25
2023-03-19T06:31:50.029Z,100459.25
2023-03-19T06:34:16.573Z,100458.34
2023-03-19T06:36:43.044Z,100464.44
2023-03-19T06:39:10.160Z,100462.59
2023-03-19T06:41:37.262Z,100469.56
2023-03-19T06:44:04.726Z,100471.31
2023-03-19T06:46:31.389Z,100467.81
2023-03-19T06:48:57.966Z,100466.03
2023-03-19T06:51:27.620Z,100475.56
2023-03-19T06:53:54.945Z,100473.78
2023-03-19T06:56:21.639Z,100473.84
2023-03-19T06:58:48.133Z,100467.78
2023-03-19T07:01:14.724Z,100472.97
2023-03-19T07:03:41.252Z,100477.34
2023-03-19T07:06:07.731Z,100478.22
2023-03-19T07:08:34.224Z,100480.78
2023-03-19T07:11:07.786Z,100475.50
2023-03-19T07:13:34.546Z,100481.53
2023-03-19T07:16:01.245Z,100485.81
2023-03-19T07:18:27.840Z,100478.78
2023-03-19T07:20:54.413Z,100490.00
2023-03-19T07:23:20.950Z,100488.22
2023-03-19T07:25:47.747Z,100490.78
2023-03-19T07:28:15.545Z,100488.91
2023-03-19T07:30:42.055Z,100498.38
2023-03-19T07:33:08.800Z,100506.16
2023-03-19T07:35:35.725Z,100515.69
2023-03-19T07:38:02.720Z,100509.59
2023-03-19T07:40:29.251Z,100517.38
2023-03-19T07:42:55.731Z,100510.31
2023-03-19T07:45:22.594Z,100518.00
2023-03-19T07:47:52.564Z,100525.78
2023-03-19T07:50:19.007Z,100521.44
2023-03-19T07:52:47.796Z,100523.16
2023-03-19T07:55:14.747Z,100527.47
2023-03-19T07:57:41.543Z,100533.50
2023-03-19T08:00:10.678Z,100535.22
2023-03-19T08:02:37.224Z,100528.28
2023-03-19T08:05:04.771Z,100538.66
2023-03-19T08:07:32.261Z,100538.75
2023-03-19T08:09:58.979Z,100536.94
2023-03-19T08:12:26.018Z,100532.59
2023-03-19T08:14:52.638Z,100529.13
2023-03-19T08:17:19.209Z,100537.00
2023-03-19T08:19:46.900Z,100530.94
2023-03-19T08:22:13.753Z,100540.50
2023-03-19T08:24:40.222Z,100537.94
2023-03-19T08:27:07.778Z,100543.97
2023-03-19T08:29:34.774Z,100539.53
2023-03-19T08:32:01.414Z,100544.59
2023-03-19T08:34:28.209Z,100544.47
2023-03-19T08:36:54.709Z,100550.56
2023-03-19T08:39:21.203Z,100555.66
2023-03-19T08:41:47.660Z,100554.72
2023-03-19T08:44:14.251Z,100558.03
2023-03-19T08:46:42.499Z,100568.28
2023-03-19T08:49:09.287Z,100564.66
2023-03-19T08:51:36.336Z,100562.72
2023-03-19T08:54:02.915Z,100560.66
2023-03-19T08:56:29.410Z,100567.47
2023-03-19T08:58:57.049Z,100564.78
2023-03-19T09:01:24.370Z,100563.84
2023-03-19T09:03:51.068Z,100565.47
2023-03-19T09:06:17.772Z,100567.09
2023-03-19T09:08:44.796Z,100567.63
2023-03-19T09:11:11.425Z,100562.19
2023-03-19T09:13:38.024Z,100565.50
2023-03-19T09:16:05.232Z,100561.13
2023-03-19T09:18:32.518Z,100561.97
2023-03-19T09:20:59.067Z,100566.16
2023-03-19T09:23:25.824Z,100571.38
2023-03-19T09:25:52.347Z,100567.72
2023-03-19T09:28:19.128Z,100568.53
2023-03-19T09:30:47.827Z,100574.53
2023-03-19T09:33:16.054Z,100578.03
2023-03-19T09:35:43.449Z,100576.31
2023-03-19T09:38:10.259Z,100583.38
2023-03-19T09:40:44.037Z,100585.84
2023-03-19T09:43:45.524Z,100583.88
2023-03-19T09:46:21.944Z,100587.03
2023-03-19T09:49:09.318Z,100591.25
2023-03-19T09:51:44.775Z,100598.28
2023-03-19T09:54:32.987Z,100586.06
2023-03-19T09:57:01.025Z,100593.84
2023-03-19T09:59:29.203Z,100596.47
2023-03-19T10:02:18.083Z,100594.66
2023-03-19T10:04:44.548Z,100591.91
2023-03-19T10:07:31.245Z,100598.78
2023-03-19T10:10:22.331Z,100595.13
2023-03-19T10:13:09.347Z,100598.66
2023-03-19T10:15:38.354Z,100598.72
2023-03-19T10:18:21.688Z,100599.53
2023-03-19T10:21:03.556Z,100599.47
2023-03-19T10:23:35.633Z,100602.09
2023-03-19T10:26:04.521Z,100602.09
2023-03-19T10:28:31.425Z,100600.28
2023-03-19T10:31:14.000Z,100608.78
2023-03-19T10:34:18.658Z,100613.88
2023-03-19T10:36:45.372Z,100618.22
2023-03-19T10:39:15.524Z,100614.56
2023-03-19T10:42:05.477Z,100618.75
2023-03-19T10:44:36.904Z,100615.84
2023-03-19T10:47:12.510Z,100620.88
2023-03-19T10:49:38.992Z,100621.69
2023-03-19T10:52:06.804Z,100623.53
2023-03-19T10:54:33.354Z,100617.47
2023-03-19T10:57:01.240Z,100615.03
2023-03-19T10:59:33.381Z,100618.63
2023-03-19T11:02:14.207Z,100623.09
2023-03-19T11:04:40.750Z,100618.75
2023-03-19T11:07:13.594Z,100625.16
2023-03-19T11:09:42.776Z,100623.59
2023-03-19T11:12:26.957Z,100618.44
2023-03-19T11:14:56.860Z,100628.00
2023-03-19T11:17:45.334Z,100620.22
2023-03-19T11:20:27.504Z,100620.94
2023-03-19T11:22:56.348Z,100624.38
2023-03-19T11:25:35.986Z,100624.28
2023-03-19T11:28:08.032Z,100624.22
2023-03-19T11:30:57.171Z,100629.53
2023-03-19T11:33:38.369Z,100619.25
2023-03-19T11:36:28.854Z,100625.56
2023-03-19T11:38:58.586Z,100629.28
2023-03-19T11:41:47.139Z,100617.25
2023-03-19T11:44:32.784Z,100623.75
2023-03-19T11:47:14.825Z,100614.50
2023-03-19T11:50:05.251Z,100604.22
2023-03-19T11:52:50.347Z,100605.25
2023-03-19T11:55:28.177Z,100594.78
2023-03-19T11:58:14.591Z,100601.81
2023-03-19T12:00:50.748Z,100600.19
2023-03-19T12:03:40.248Z,100600.38
2023-03-19T12:06:09.614Z,100590.84
2023-03-19T12:08:49.556Z,100602.25
2023-03-19T12:11:22.101Z,100599.69
2023-03-19T12:14:14.272Z,100602.31
2023-03-19T12:16:57.237Z,100599.72
2023-03-19T12:19:35.736Z,100599.88
2023-03-19T12:22:30.254Z,100594.78
2023-03-19T12:25:22.551Z,100594.16
2023-03-19T12:28:08.661Z,100592.44
2023-03-19T12:30:48.362Z,100585.28
2023-03-19T12:33:32.579Z,100579.66
2023-03-19T12:36:01.476Z,100578.53
2023-03-19T12:38:48.575Z,100585.50
2023-03-19T12:41:23.860Z,100582.91
2023-03-19T12:44:10.796Z,100583.78
2023-03-19T12:46:45.878Z,100587.31
2023-03-19T12:49:12.259Z,100574.19
2023-03-19T12:51:43.308Z,100584.69
2023-03-19T12:54:18.744Z,100581.97
2023-03-19T12:56:55.906Z,100580.03
2023-03-19T12:59:33.170Z,100583.25
2023-03-19T13:02:09.850Z,100567.31
2023-03-19T13:04:42.993Z,100574.31
2023-03-19T13:07:18.396Z,100580.50
2023-03-19T13:10:01.818Z,100577.88
2023-03-19T13:12:32.000Z,100575.19
2023-03-19T13:15:07.208Z,100576.94
2023-03-19T13:17:41.530Z,100584.84
2023-03-19T13:20:17.654Z,100582.19
2023-03-19T13:22:53.004Z,100582.19
2023-03-19T13:25:25.593Z,100571.81
2023-03-19T13:27:55.764Z,100567.59
2023-03-19T13:30:23.563Z,100571.13
2023-03-19T13:33:05.217Z,100566.72
2023-03-19T13:35:31.746Z,100567.69
2023-03-19T13:38:02.486Z,100573.88
2023-03-19T13:40:40.156Z,100566.91
2023-03-19T13:43:28.298Z,100562.59
2023-03-19T13:46:04.730Z,100567.84
2023-03-19T13:48:38.848Z,100561.72
2023-03-19T13:51:26.886Z,100559.09
2023-03-19T13:54:08.260Z,100557.31
2023-03-19T13:57:01.218Z,100558.13
2023-03-19T13:59:38.694Z,100558.03
2023-03-19T14:02:26.549Z,100559.59
2023-03-19T14:05:11.773Z,100559.44
2023-03-19T14:07:40.891Z,100560.06
2023-03-19T14:10:15.937Z,100567.63
2023-03-19T14:12:45.003Z,100564.84
2023-03-19T14:15:23.882Z,100561.13
2023-03-19T14:17:50.265Z,100561.66
2023-03-19T14:20:35.431Z,100563.72
2023-03-19T14:23:08.899Z,100570.75
2023-03-19T14:25:54.403Z,100570.22
2023-03-19T14:28:28.872Z,100575.84
2023-03-19T14:30:56.909Z,100582.09
2023-03-19T14:33:29.353Z,100579.41
2023-03-19T14:35:57.040Z,100584.44
2023-03-19T14:38:40.095Z,100575.16
2023-03-19T14:41:12.725Z,100581.56
2023-03-19T14:43:57.733Z,100581.72
2023-03-19T14:46:51.602Z,100580.00
2023-03-19T14:49:31.952Z,100580.03
2023-03-19T14:52:09.671Z,100584.28
2023-03-19T14:54:42.723Z,100583.47
2023-03-19T14:57:18.165Z,100587.78
2023-03-19T14:59:44.995Z,100591.22
2023-03-19T15:02:45.187Z,100585.78
2023-03-19T15:05:29.799Z,100586.59
2023-03-19T15:08:03.325Z,100590.00
2023-03-19T15:10:36.986Z,100586.41
2023-03-19T15:13:21.897Z,100593.38
2023-03-19T15:16:05.940Z,100601.44
2023-03-19T15:18:32.805Z,100602.41
2023-03-19T15:20:59.500Z,100597.09
2023-03-19T15:23:28.535Z,100603.38
2023-03-19T15:26:01.440Z,100606.00
2023-03-19T15:28:32.314Z,100602.44
2023-03-19T15:31:26.385Z,100590.16
2023-03-19T15:33:52.874Z,100592.75
2023-03-19T15:36:29.554Z,100594.69
2023-03-19T15:39:04.042Z,100595.75
2023-03-19T15:41:34.770Z,100602.63
2023-03-19T15:44:05.299Z,100605.19
2023-03-19T17:33:22.784Z,100727.84
2023-03-19T17:35:49.700Z,100733.06
2023-03-19T17:38:18.036Z,100734.03
2023-03-19T17:40:44.977Z,100739.34
2023-03-19T17:43:12.475Z,100737.72
2023-03-19T17:45:42.586Z,100745.69
2023-03-19T17:48:15.946Z,100747.41
2023-03-19T17:50:42.572Z,100741.38
2023-03-19T17:53:12.174Z,100749.31
2023-03-19T17:55:38.646Z,100751.03
2023-03-19T17:58:05.096Z,100754.59
2023-03-19T18:00:31.673Z,100764.38
2023-03-19T18:02:58.519Z,100759.97
2023-03-19T18:05:26.320Z,100761.75
2023-03-19T18:07:56.557Z,100761.06
2023-03-19T18:10:30.336Z,100771.50
2023-03-19T18:12:59.927Z,100766.31
2023-03-19T18:15:29.257Z,100767.25
2023-03-19T18:17:59.092Z,100775.13
2023-03-19T18:20:29.491Z,100771.63
2023-03-19T18:22:56.123Z,100769.09
2023-03-19T18:25:25.513Z,100779.59
2023-03-19T18:27:53.136Z,100777.00
2023-03-19T18:30:22.845Z,100788.38
2023-03-19T18:33:02.264Z,100795.25
2023-03-19T18:35:41.357Z,100796.13
2023-03-19T18:38:26.806Z,100794.44
2023-03-19T18:40:54.937Z,100802.31
2023-03-19T18:43:21.548Z,100805.06
2023-03-19T18:45:53.405Z,100807.69
2023-03-19T18:48:19.779Z,100808.63
2023-03-19T18:50:47.586Z,100804.28
2023-03-19T18:53:15.604Z,100812.28
2023-03-19T18:55:42.760Z,100818.44
2023-03-19T18:58:16.423Z,100824.59
2023-03-19T19:00:42.991Z,100822.91
2023-03-19T19:03:13.562Z,100822.97
2023-03-19T19:05:40.162Z,100829.13
2023-03-19T19:08:12.512Z,100825.69
2023-03-19T19:10:46.141Z,100827.53
2023-03-19T19:13:23.236Z,100830.06
2023-03-19T19:15:49.788Z,100834.44
2023-03-19T19:18:20.899Z,100841.44
2023-03-19T19:20:49.621Z,100842.38
2023-03-19T19:23:16.334Z,100849.34
2023-03-19T19:25:46.040Z,100848.56
2023-03-19T19:28:15.518Z,100857.34
2023-03-19T19:30:42.371Z,100856.44
2023-03-19T19:33:19.718Z,100848.56
2023-03-19T19:35:46.588Z,100860.88
2023-03-19T19:38:13.617Z,100860.78
2023-03-19T19:40:43.153Z,100857.28
2023-03-19T19:43:19.694Z,100866.03
2023-03-19T19:45:48.528Z,100870.41
2023-03-19T19:48:35.494Z,100870.47
2023-03-19T19:51:01.984Z,100869.72
2023-03-19T19:53:29.489Z,100875.84
2023-03-19T19:55:56.364Z,100882.81
2023-03-19T19:58:22.785Z,100884.59
2023-03-19T20:01:02.414Z,100889.00
2023-03-19T20:03:32.231Z,100896.06
2023-03-19T20:05:59.912Z,100889.06
2023-03-19T20:08:27.207Z,100903.06
2023-03-19T20:10:54.420Z,100899.59
2023-03-19T20:13:39.584Z,100903.25
2023-03-19T20:16:06.531Z,100905.81
2023-03-19T20:18:35.592Z,100911.13
2023-03-19T20:21:04.058Z,100914.66
2023-03-19T20:23:30.684Z,100919.94
2023-03-19T20:25:58.238Z,100928.75
2023-03-19T20:28:32.614Z,100932.28
2023-03-19T20:31:00.011Z,100939.34
2023-03-19T20:33:27.898Z,100944.56
2023-03-19T20:35:54.978Z,100955.00
2023-03-19T20:38:21.599Z,100959.28
2023-03-19T20:40:56.389Z,100972.38
2023-03-19T20:43:29.084Z,100978.50
2023-03-19T20:46:02.873Z,100977.63
2023-03-19T20:48:30.652Z,100982.88
2023-03-19T20:50:59.960Z,100982.03
2023-03-19T20:53:26.548Z,100982.09
2023-03-19T20:55:53.839Z,101000.56
2023-03-19T20:58:32.210Z,101007.59
2023-03-19T21:00:59.311Z,100995.44
2023-03-19T21:03:28.486Z,101000.78
2023-03-19T21:06:01.874Z,100991.22
2023-03-19T21:08:32.500Z,100994.75
2023-03-19T21:11:00.277Z,101014.91
2023-03-19T21:13:27.468Z,101009.72
2023-03-19T21:15:54.700Z,101009.72
2023-03-19T21:18:21.522Z,101014.97
2023-03-19T21:20:54.524Z,101024.69
2023-03-19T21:24:10.635Z,101012.59
2023-03-19T21:26:39.295Z,101020.59
2023-03-19T21:29:11.998Z,101026.78
2023-03-19T21:31:38.494Z,101020.78
2023-03-19T21:34:05.637Z,101016.47
2023-03-19T21:36:32.174Z,101026.97
2023-03-19T21:38:58.869Z,101020.94
2023-03-19T21:41:33.289Z,101008.72
2023-03-19T21:44:03.056Z,101006.97
2023-03-19T21:46:30.836Z,101013.97
2023-03-19T21:48:58.449Z,101014.00
2023-03-19T21:51:26.688Z,101014.03
2023-03-19T21:53:53.223Z,101017.50
2023-03-19T21:56:27.856Z,101014.94
2023-03-19T21:58:54.420Z,101014.94
2023-03-19T22:01:24.405Z,101015.03
2023-03-19T22:03:55.421Z,101019.38
2023-03-19T22:06:22.142Z,101022.84
2023-03-19T22:08:49.093Z,101020.25
2023-03-19T22:11:20.682Z,101014.06
2023-03-19T22:13:47.731Z,101021.91
2023-03-19T22:16:20.960Z,101028.88
2023-03-19T22:18:47.881Z,101038.47
2023-03-19T22:21:17.772Z,101028.97
2023-03-19T22:23:45.916Z,101036.84
2023-03-19T22:26:33.721Z,101034.25
2023-03-19T22:29:03.433Z,101037.84
2023-03-19T22:31:30.640Z,101036.97
2023-03-19T22:33:57.478Z,101043.97
2023-03-19T22:36:23.977Z,101042.22
2023-03-19T22:38:50.674Z,101044.97
2023-03-19T22:41:31.804Z,101044.22
2023-03-19T22:44:00.786Z,101047.69
2023-03-19T22:46:27.943Z,101054.69
2023-03-19T22:48:54.823Z,101049.50
2023-03-19T22:51:25.527Z,101053.88
2023-03-19T22:53:52.715Z,101057.41
2023-03-19T22:56:21.325Z,101058.25
2023-03-19T22:58:48.711Z,101057.38
2023-03-19T23:01:39.748Z,101061.75
2023-03-19T23:04:26.322Z,101061.78
2023-03-19T23:06:54.286Z,101060.06
2023-03-19T23:09:24.090Z,101068.75
2023-03-19T23:11:51.557Z,101074.94
2023-03-19T23:14:29.188Z,101082.75
2023-03-19T23:19:31.417Z,101092.34
2023-03-19T23:21:59.562Z,101097.63
2023-03-19T23:24:26.645Z,101104.59
2023-03-19T23:26:55.219Z,101101.13
2023-03-19T23:29:24.732Z,101106.34
2023-03-19T23:31:51.879Z,101115.94
2023-03-19T23:34:18.422Z,101106.38
2023-03-19T23:36:45.133Z,101119.47
2023-03-19T23:39:11.781Z,101128.19
2023-03-19T23:41:48.365Z,101124.69
2023-03-19T23:44:17.627Z,101135.13
2023-03-19T23:46:49.228Z,101148.22
2023-03-19T23:49:22.073Z,101129.91
2023-03-19T23:51:48.554Z,101136.88
2023-03-19T23:54:29.327Z,101141.25
2023-03-19T23:56:59.695Z,101139.53
2023-03-19T23:59:29.384Z,101145.63
